Terminal Aerodrome Forecast
Issued by NWS

Home | Current Version | Previous Version | Text Only | Print | Product List | Glossary On
Versions: 1 2 3 4 5 6 7 8 9 10 11 12 13 14 15 16 17 18 19 20 21
302
FTUS41 KILN 211133
TAFLUK
TAF
KLUK 211133Z 2112/2212 18005KT P6SM OVC200
     FM212200 20006KT P6SM VCSH SCT035 OVC080
     FM220200 19003KT 5SM -SHRA BR OVC028
     FM220600 19003KT 5SM BR VCSH OVC018=

USA.gov is the U.S. government's official web portal to all federal, state and local government web resources and services.